createdAt,value
2019-01-08T00:00:24.397Z,6.74
2019-01-08T00:01:24.299Z,6.75
2019-01-08T00:02:24.282Z,6.78
2019-01-08T00:03:24.271Z,6.81
2019-01-08T00:04:24.263Z,6.82
2019-01-08T00:05:24.252Z,6.88
2019-01-08T00:06:24.246Z,6.89
2019-01-08T00:07:24.228Z,6.96
2019-01-08T00:08:24.220Z,7.04
2019-01-08T00:09:24.207Z,7.07
2019-01-08T00:10:24.198Z,7.07
2019-01-08T00:11:24.263Z,7.00
2019-01-08T00:12:24.177Z,7.00
2019-01-08T00:13:24.165Z,7.00
2019-01-08T00:14:24.157Z,7.00
2019-01-08T00:15:24.145Z,7.04
2019-01-08T00:16:24.140Z,7.07
2019-01-08T00:17:24.121Z,7.11
2019-01-08T00:18:24.110Z,7.15
2019-01-08T00:19:24.101Z,7.16
2019-01-08T00:20:24.092Z,7.16
2019-01-08T00:21:24.080Z,7.19
2019-01-08T00:22:24.069Z,7.18
2019-01-08T00:23:24.057Z,7.18
2019-01-08T00:24:24.046Z,7.23
2019-01-08T00:25:24.037Z,7.27
2019-01-08T00:26:24.024Z,7.29
2019-01-08T00:27:24.015Z,7.33
2019-01-08T00:28:24.006Z,7.36
2019-01-08T00:29:23.989Z,7.37
2019-01-08T00:30:23.983Z,7.37
2019-01-08T00:31:23.981Z,7.41
2019-01-08T00:32:23.960Z,7.45
2019-01-08T00:33:23.953Z,7.48
2019-01-08T00:34:23.935Z,7.50
2019-01-08T00:35:23.927Z,7.48
2019-01-08T00:36:23.917Z,7.50
2019-01-08T00:37:23.902Z,7.51
2019-01-08T00:38:23.892Z,7.51
2019-01-08T00:39:23.884Z,7.54
2019-01-08T00:40:23.884Z,7.52
2019-01-08T00:41:23.863Z,7.55
2019-01-08T00:42:23.849Z,7.51
2019-01-08T00:43:23.841Z,7.48
2019-01-08T00:44:23.904Z,7.48
2019-01-08T00:45:23.823Z,7.48
2019-01-08T00:46:23.805Z,7.50
2019-01-08T00:47:23.799Z,7.52
2019-01-08T00:48:23.782Z,7.60
2019-01-08T00:49:23.775Z,7.57
2019-01-08T00:50:23.762Z,7.58
2019-01-08T00:51:23.751Z,7.60
2019-01-08T00:52:23.740Z,7.65
2019-01-08T00:53:23.732Z,7.62
2019-01-08T00:54:23.724Z,7.63
2019-01-08T00:55:23.709Z,7.62
2019-01-08T00:56:23.695Z,7.62
2019-01-08T00:57:23.683Z,7.63
2019-01-08T00:58:23.676Z,7.66
2019-01-08T00:59:23.663Z,7.68
2019-01-08T01:00:23.652Z,7.70
2019-01-08T01:01:23.643Z,7.76
2019-01-08T01:02:23.640Z,7.75
2019-01-08T01:03:23.620Z,7.75
2019-01-08T01:04:23.609Z,7.76
2019-01-08T01:05:23.602Z,7.75
2019-01-08T01:06:23.587Z,7.76
2019-01-08T01:07:23.575Z,7.81
2019-01-08T01:08:23.563Z,7.78
2019-01-08T01:09:23.553Z,7.76
2019-01-08T01:10:23.541Z,7.80
2019-01-08T01:11:23.533Z,7.80
2019-01-08T01:12:23.522Z,7.75
2019-01-08T01:13:23.509Z,7.78
2019-01-08T01:14:23.498Z,7.81
2019-01-08T01:15:23.486Z,7.81
2019-01-08T01:16:23.474Z,7.76
2019-01-08T01:17:23.473Z,7.81
2019-01-08T01:18:23.454Z,7.81
2019-01-08T01:19:23.445Z,7.87
2019-01-08T01:20:23.437Z,7.87
2019-01-08T01:21:23.426Z,7.87
2019-01-08T01:22:23.412Z,7.87
2019-01-08T01:23:23.399Z,7.88
2019-01-08T01:24:23.394Z,7.88
2019-01-08T01:25:23.379Z,7.87
2019-01-08T01:26:23.367Z,7.84
2019-01-08T01:27:23.356Z,7.84
2019-01-08T01:28:23.346Z,7.88
2019-01-08T01:29:23.335Z,7.93
2019-01-08T01:30:23.326Z,7.95
2019-01-08T01:31:23.311Z,7.94
2019-01-08T01:32:23.303Z,7.93
2019-01-08T01:33:23.293Z,7.98
2019-01-08T01:34:23.284Z,8.02
2019-01-08T01:35:23.271Z,8.05
2019-01-08T01:36:23.260Z,8.05
2019-01-08T01:37:23.247Z,8.03
2019-01-08T01:38:23.236Z,8.05
2019-01-08T01:39:23.232Z,8.02
2019-01-08T01:40:23.213Z,8.01
2019-01-08T01:41:23.207Z,7.98
2019-01-08T01:42:23.191Z,7.99
2019-01-08T01:43:23.183Z,7.95
2019-01-08T01:44:23.176Z,7.93
2019-01-08T01:45:23.160Z,7.88
2019-01-08T01:46:23.147Z,7.87
2019-01-08T01:47:23.141Z,7.85
2019-01-08T01:48:23.128Z,7.84
2019-01-08T01:49:23.119Z,7.83
2019-01-08T01:50:23.106Z,7.81
2019-01-08T01:51:23.096Z,7.78
2019-01-08T01:52:23.090Z,7.75
2019-01-08T01:53:23.076Z,7.75
2019-01-08T01:54:23.062Z,7.70
2019-01-08T01:55:23.052Z,7.72
2019-01-08T01:56:23.042Z,7.72
2019-01-08T01:57:23.031Z,7.69
2019-01-08T01:58:23.022Z,7.70
2019-01-08T01:59:23.012Z,7.69
2019-01-08T02:00:23.000Z,7.68
2019-01-08T02:01:22.986Z,7.66
2019-01-08T02:02:22.979Z,7.63
2019-01-08T02:03:22.968Z,7.62
2019-01-08T02:04:22.958Z,7.60
2019-01-08T02:05:22.945Z,7.58
2019-01-08T02:06:22.935Z,7.55
2019-01-08T02:07:22.926Z,7.55
2019-01-08T02:08:22.913Z,7.54
2019-01-08T02:09:22.904Z,7.52
2019-01-08T02:10:22.898Z,7.50
2019-01-08T02:11:22.887Z,7.44
2019-01-08T02:12:22.871Z,7.44
2019-01-08T02:13:22.860Z,7.42
2019-01-08T02:14:22.853Z,7.44
2019-01-08T02:15:22.836Z,7.45
2019-01-08T02:16:22.831Z,7.44
2019-01-08T02:17:22.816Z,7.39
2019-01-08T02:18:22.809Z,7.36
2019-01-08T02:19:22.794Z,7.34
2019-01-08T02:20:22.785Z,7.33
2019-01-08T02:21:22.775Z,7.33
2019-01-08T02:22:22.765Z,7.32
2019-01-08T02:23:22.763Z,7.30
2019-01-08T02:24:22.742Z,7.24
2019-01-08T02:25:22.731Z,7.24
2019-01-08T02:26:22.720Z,7.24
2019-01-08T02:27:22.709Z,7.21
2019-01-08T02:28:22.698Z,7.21
2019-01-08T02:29:22.689Z,7.19
2019-01-08T02:30:22.679Z,7.18
2019-01-08T02:31:22.664Z,7.15
2019-01-08T02:32:22.660Z,7.15
2019-01-08T02:33:22.647Z,7.09
2019-01-08T02:34:22.631Z,7.09
2019-01-08T02:35:22.622Z,7.05
2019-01-08T02:36:22.615Z,7.00
2019-01-08T02:37:22.601Z,6.99
2019-01-08T02:38:22.594Z,6.97
2019-01-08T02:39:22.580Z,6.94
2019-01-08T02:40:22.574Z,6.90
2019-01-08T02:41:22.623Z,6.90
2019-01-08T02:42:22.549Z,6.97
2019-01-08T02:43:22.537Z,6.99
2019-01-08T02:44:22.601Z,6.96
2019-01-08T02:45:22.518Z,6.94
2019-01-08T02:46:22.506Z,6.94
2019-01-08T02:47:22.495Z,6.94
2019-01-08T02:48:22.484Z,6.92
2019-01-08T02:49:22.471Z,6.92
2019-01-08T02:50:22.464Z,6.90
2019-01-08T02:51:22.453Z,6.88
2019-01-08T02:52:22.443Z,6.89
2019-01-08T02:53:22.428Z,6.86
2019-01-08T02:54:22.461Z,6.85
2019-01-08T02:55:22.407Z,6.82
2019-01-08T02:56:22.395Z,6.81
2019-01-08T02:57:22.392Z,6.81
2019-01-08T02:58:22.382Z,6.82
2019-01-08T02:59:25.192Z,6.82
2019-01-08T03:00:22.355Z,6.82
2019-01-08T03:01:22.343Z,6.86
2019-01-08T03:02:22.332Z,6.81
2019-01-08T03:03:22.323Z,6.81
2019-01-08T03:04:22.311Z,6.82
2019-01-08T03:05:22.299Z,6.81
2019-01-08T03:06:22.291Z,6.82
2019-01-08T03:07:22.284Z,6.85
2019-01-08T03:08:22.267Z,6.88
2019-01-08T03:09:22.258Z,6.85
2019-01-08T03:10:22.247Z,6.85
2019-01-08T03:11:22.237Z,6.81
2019-01-08T03:12:22.223Z,6.82
2019-01-08T03:13:22.223Z,6.82
2019-01-08T03:14:22.205Z,6.86
2019-01-08T03:15:22.193Z,6.85
2019-01-08T03:16:22.183Z,6.82
2019-01-08T03:17:22.174Z,6.82
2019-01-08T03:18:22.158Z,6.82
2019-01-08T03:19:22.152Z,6.82
2019-01-08T03:20:22.152Z,6.81
2019-01-08T03:21:22.128Z,6.78
2019-01-08T03:22:22.117Z,6.81
2019-01-08T03:23:22.106Z,6.85
2019-01-08T03:24:22.094Z,6.86
2019-01-08T03:25:22.083Z,6.86
2019-01-08T03:26:22.073Z,6.82
2019-01-08T03:27:22.064Z,6.80
2019-01-08T03:28:22.051Z,6.80
2019-01-08T03:29:22.042Z,6.82
2019-01-08T03:30:22.039Z,6.86
2019-01-08T03:31:22.020Z,6.86
2019-01-08T03:32:22.009Z,6.86
2019-01-08T03:33:21.998Z,6.86
2019-01-08T03:34:21.988Z,6.85
2019-01-08T03:35:21.977Z,6.89
2019-01-08T03:36:21.966Z,6.86
2019-01-08T03:37:21.955Z,6.86
2019-01-08T03:38:21.942Z,6.86
2019-01-08T03:39:21.932Z,6.85
2019-01-08T03:40:21.924Z,6.81
2019-01-08T03:41:21.911Z,6.81
2019-01-08T03:42:21.904Z,6.81
2019-01-08T03:43:21.899Z,6.81
2019-01-08T03:44:21.882Z,6.85
2019-01-08T03:45:21.870Z,6.89
2019-01-08T03:46:21.859Z,6.88
2019-01-08T03:47:21.845Z,6.88
2019-01-08T03:48:21.836Z,6.86
2019-01-08T03:49:21.824Z,6.85
2019-01-08T03:50:21.815Z,6.81
2019-01-08T03:51:21.805Z,6.74
2019-01-08T03:52:21.792Z,6.74
2019-01-08T03:53:21.783Z,6.75
2019-01-08T03:54:21.771Z,6.71
2019-01-08T03:55:21.762Z,6.70
2019-01-08T03:56:21.748Z,6.71
2019-01-08T03:57:21.750Z,6.72
2019-01-08T03:58:21.732Z,6.75
2019-01-08T03:59:21.718Z,6.74
2019-01-08T04:00:21.708Z,6.74
2019-01-08T04:01:21.696Z,6.72
2019-01-08T04:02:21.684Z,6.75
2019-01-08T04:03:21.675Z,6.77
2019-01-08T04:04:21.667Z,6.75
2019-01-08T04:05:21.654Z,6.75
2019-01-08T04:06:21.643Z,6.71
2019-01-08T04:07:21.632Z,6.74
2019-01-08T04:08:21.621Z,6.74
2019-01-08T04:09:21.610Z,6.74
2019-01-08T04:10:21.600Z,6.72
2019-01-08T04:11:21.591Z,6.74
2019-01-08T04:12:21.578Z,6.74
2019-01-08T04:13:21.569Z,6.75
2019-01-08T04:14:21.557Z,6.75
2019-01-08T04:15:21.551Z,6.75
2019-01-08T04:16:21.534Z,6.77
2019-01-08T04:17:21.526Z,6.75
2019-01-08T04:18:21.524Z,6.77
2019-01-08T04:19:21.504Z,6.77
2019-01-08T04:20:21.494Z,6.78
2019-01-08T04:21:21.482Z,6.80
2019-01-08T04:22:21.471Z,6.81
2019-01-08T04:23:21.460Z,6.80
2019-01-08T04:24:21.453Z,6.80
2019-01-08T04:25:21.438Z,6.77
2019-01-08T04:26:21.428Z,6.77
2019-01-08T04:27:21.421Z,6.75
2019-01-08T04:28:21.413Z,6.77
2019-01-08T04:29:21.399Z,6.78
2019-01-08T04:30:21.386Z,6.77
2019-01-08T04:31:21.372Z,6.78
2019-01-08T04:32:21.362Z,6.82
2019-01-08T04:33:21.352Z,6.85
2019-01-08T04:34:21.339Z,6.80
2019-01-08T04:35:21.330Z,6.81
2019-01-08T04:36:21.319Z,6.78
2019-01-08T04:37:21.308Z,6.78
2019-01-08T04:38:21.297Z,6.80
2019-01-08T04:39:21.347Z,6.77
2019-01-08T04:40:21.272Z,6.78
2019-01-08T04:41:21.267Z,6.74
2019-01-08T04:42:21.254Z,6.77
2019-01-08T04:43:21.241Z,6.78
2019-01-08T04:44:21.231Z,6.75
2019-01-08T04:45:21.221Z,6.72
2019-01-08T04:46:21.209Z,6.70
2019-01-08T04:47:21.198Z,6.67
2019-01-08T04:48:21.189Z,6.67
2019-01-08T04:49:21.176Z,6.67
2019-01-08T04:50:21.167Z,6.62
2019-01-08T04:51:21.237Z,6.62
2019-01-08T04:52:21.144Z,6.64
2019-01-08T04:53:21.132Z,6.64
2019-01-08T04:54:21.121Z,6.68
2019-01-08T04:55:21.113Z,6.68
2019-01-08T04:56:21.099Z,6.64
2019-01-08T04:57:21.091Z,6.63
2019-01-08T04:58:21.083Z,6.64
2019-01-08T04:59:21.065Z,6.67
2019-01-08T05:00:21.057Z,6.64
2019-01-08T05:01:21.046Z,6.67
2019-01-08T05:02:21.035Z,6.67
2019-01-08T05:03:21.022Z,6.64
2019-01-08T05:04:21.011Z,6.68
2019-01-08T05:05:21.002Z,6.68
2019-01-08T05:06:20.992Z,6.64
2019-01-08T05:07:20.981Z,6.60
2019-01-08T05:08:20.969Z,6.57
2019-01-08T05:09:20.961Z,6.56
2019-01-08T05:10:20.951Z,6.56
2019-01-08T05:11:20.936Z,6.59
2019-01-08T05:12:20.928Z,6.59
2019-01-08T05:13:20.959Z,6.59
2019-01-08T05:14:20.903Z,6.57
2019-01-08T05:15:20.892Z,6.56
2019-01-08T05:16:20.880Z,6.57
2019-01-08T05:17:20.872Z,6.54
2019-01-08T05:18:20.860Z,6.54
2019-01-08T05:19:20.851Z,6.53
2019-01-08T05:20:20.840Z,6.49
2019-01-08T05:21:20.830Z,6.50
2019-01-08T05:22:20.817Z,6.50
2019-01-08T05:23:20.806Z,6.47
2019-01-08T05:24:20.794Z,6.47
2019-01-08T05:25:20.783Z,6.49
2019-01-08T05:26:20.780Z,6.49
2019-01-08T05:27:20.763Z,6.45
2019-01-08T05:28:20.757Z,6.42
2019-01-08T05:29:20.739Z,6.39
2019-01-08T05:30:20.730Z,6.39
2019-01-08T05:31:20.720Z,6.39
2019-01-08T05:32:20.706Z,6.37
2019-01-08T05:33:20.700Z,6.38
2019-01-08T05:34:20.685Z,6.37
2019-01-08T05:35:20.675Z,6.35
2019-01-08T05:36:20.663Z,6.37
2019-01-08T05:37:20.657Z,6.35
2019-01-08T05:38:20.644Z,6.35
2019-01-08T05:39:20.633Z,6.34
2019-01-08T05:40:20.630Z,6.32
2019-01-08T05:41:20.608Z,6.29
2019-01-08T05:42:20.599Z,6.29
2019-01-08T05:43:20.591Z,6.27
2019-01-08T05:44:20.577Z,6.27
2019-01-08T05:45:20.565Z,6.27
2019-01-08T05:46:20.555Z,6.27
2019-01-08T05:47:20.544Z,6.26
2019-01-08T05:48:20.533Z,6.27
2019-01-08T05:49:20.528Z,6.29
2019-01-08T05:50:20.514Z,6.29
2019-01-08T05:51:20.503Z,6.27
2019-01-08T05:52:20.492Z,6.31
2019-01-08T05:53:20.478Z,6.32
2019-01-08T05:54:20.470Z,6.35
2019-01-08T05:55:20.470Z,6.38
2019-01-08T05:56:20.446Z,6.35
2019-01-08T05:57:20.439Z,6.37
2019-01-08T05:58:20.427Z,6.38
2019-01-08T05:59:20.414Z,6.38
2019-01-08T06:00:20.405Z,6.37
2019-01-08T06:01:20.391Z,6.37
2019-01-08T06:02:20.388Z,6.35
2019-01-08T06:03:20.374Z,6.39
2019-01-08T06:04:20.359Z,6.38
2019-01-08T06:05:20.349Z,6.35
2019-01-08T06:06:20.339Z,6.34
2019-01-08T06:07:20.330Z,6.34
2019-01-08T06:08:20.318Z,6.32
2019-01-08T06:09:20.309Z,6.34
2019-01-08T06:10:20.299Z,6.37
2019-01-08T06:11:20.286Z,6.37
2019-01-08T06:12:20.279Z,6.38
2019-01-08T06:13:20.266Z,6.39
2019-01-08T06:14:20.254Z,6.38
2019-01-08T06:15:20.243Z,6.41
2019-01-08T06:16:20.232Z,6.44
2019-01-08T06:17:20.232Z,6.45
2019-01-08T06:18:20.211Z,6.47
2019-01-08T06:19:20.201Z,6.44
2019-01-08T06:20:20.196Z,6.45
2019-01-08T06:21:20.177Z,6.47
2019-01-08T06:22:20.173Z,6.50
2019-01-08T06:23:20.156Z,6.52
2019-01-08T06:24:20.147Z,6.49
2019-01-08T06:25:20.133Z,6.47
2019-01-08T06:26:20.122Z,6.49
2019-01-08T06:27:20.113Z,6.50
2019-01-08T06:28:20.103Z,6.52
2019-01-08T06:29:20.091Z,6.52
2019-01-08T06:30:24.756Z,6.53
2019-01-08T06:31:20.069Z,6.54
2019-01-08T06:32:20.058Z,6.53
2019-01-08T06:33:20.059Z,6.53
2019-01-08T06:34:20.036Z,6.56
2019-01-08T06:35:20.025Z,6.56
2019-01-08T06:36:20.014Z,6.53
2019-01-08T06:37:20.004Z,6.57
2019-01-08T06:38:20.002Z,6.60
2019-01-08T06:39:19.982Z,6.60
2019-01-08T06:40:19.971Z,6.60
2019-01-08T06:41:19.960Z,6.63
2019-01-08T06:42:19.951Z,6.62
2019-01-08T06:43:19.952Z,6.60
2019-01-08T06:44:19.926Z,6.60
2019-01-08T06:45:19.917Z,6.60
2019-01-08T06:46:19.904Z,6.60
2019-01-08T06:47:19.898Z,6.63
2019-01-08T06:48:19.881Z,6.64
2019-01-08T06:49:19.872Z,6.62
2019-01-08T06:50:19.873Z,6.60
2019-01-08T06:51:19.856Z,6.59
2019-01-08T06:52:19.850Z,6.57
2019-01-08T06:53:19.829Z,6.57
2019-01-08T06:54:19.815Z,6.60
2019-01-08T06:55:19.808Z,6.56
2019-01-08T06:56:19.795Z,6.54
2019-01-08T06:57:19.821Z,6.52
2019-01-08T06:58:19.854Z,6.50
2019-01-08T06:59:19.801Z,6.50
2019-01-08T07:00:19.750Z,6.53
2019-01-08T07:01:19.742Z,6.57
2019-01-08T07:02:19.730Z,6.57
2019-01-08T07:03:19.719Z,6.59
2019-01-08T07:04:19.707Z,6.59
2019-01-08T07:05:19.696Z,6.57
2019-01-08T07:06:19.686Z,6.57
2019-01-08T07:07:19.674Z,6.56
2019-01-08T07:08:19.666Z,6.57
2019-01-08T07:09:19.653Z,6.59
2019-01-08T07:10:19.646Z,6.59
2019-01-08T07:11:19.631Z,6.63
2019-01-08T07:12:19.621Z,6.64
2019-01-08T07:13:19.610Z,6.67
2019-01-08T07:14:19.599Z,6.67
2019-01-08T07:15:19.590Z,6.64
2019-01-08T07:16:19.575Z,6.63
2019-01-08T07:17:19.565Z,6.62
2019-01-08T07:18:19.555Z,6.59
2019-01-08T07:19:19.545Z,6.57
2019-01-08T07:20:19.531Z,6.54
2019-01-08T07:21:19.522Z,6.54
2019-01-08T07:22:19.512Z,6.54
2019-01-08T07:23:19.500Z,6.52
2019-01-08T07:24:19.494Z,6.52
2019-01-08T07:25:19.477Z,6.56
2019-01-08T07:26:19.467Z,6.59
2019-01-08T07:27:19.458Z,6.60
2019-01-08T07:28:19.445Z,6.60
2019-01-08T07:29:19.434Z,6.60
2019-01-08T07:30:19.423Z,6.60
2019-01-08T07:31:19.414Z,6.57
2019-01-08T07:32:19.401Z,6.57
2019-01-08T07:33:19.390Z,6.56
2019-01-08T07:34:19.382Z,6.56
2019-01-08T07:35:19.370Z,6.56
2019-01-08T07:36:19.357Z,6.56
2019-01-08T07:37:19.347Z,6.53
2019-01-08T07:38:19.337Z,6.50
2019-01-08T07:39:19.324Z,6.50
2019-01-08T07:40:19.313Z,6.50
2019-01-08T07:41:19.304Z,6.53
2019-01-08T07:42:19.294Z,6.54
2019-01-08T07:43:19.285Z,6.57
2019-01-08T07:44:19.275Z,6.59
2019-01-08T07:45:19.259Z,6.60
2019-01-08T07:46:19.248Z,6.62
2019-01-08T07:47:19.242Z,6.63
2019-01-08T07:48:19.226Z,6.63
2019-01-08T07:49:19.217Z,6.64
2019-01-08T07:50:19.205Z,6.60
2019-01-08T07:51:19.195Z,6.60
2019-01-08T07:52:19.184Z,6.63
2019-01-08T07:53:19.176Z,6.62
2019-01-08T07:54:19.164Z,6.63
2019-01-08T07:55:19.158Z,6.64
2019-01-08T07:56:19.141Z,6.63
2019-01-08T07:57:19.130Z,6.64
2019-01-08T07:58:19.117Z,6.64
2019-01-08T07:59:19.106Z,6.68
2019-01-08T08:00:19.095Z,6.72
2019-01-08T08:01:19.085Z,6.74
2019-01-08T08:02:19.078Z,6.75
2019-01-08T08:03:19.064Z,6.77
2019-01-08T08:04:19.052Z,6.75
2019-01-08T08:05:19.045Z,6.80
2019-01-08T08:06:19.029Z,6.78
2019-01-08T08:07:19.021Z,6.77
2019-01-08T08:08:19.011Z,6.78
2019-01-08T08:09:18.998Z,6.78
2019-01-08T08:10:18.987Z,6.78
2019-01-08T08:11:18.974Z,6.80
2019-01-08T08:12:18.970Z,6.81
2019-01-08T08:13:18.954Z,6.80
2019-01-08T08:14:18.945Z,6.78
2019-01-08T08:15:18.933Z,6.77
2019-01-08T08:16:18.920Z,6.74
2019-01-08T08:17:18.910Z,6.68
2019-01-08T08:18:18.907Z,6.60
2019-01-08T08:19:18.895Z,6.54
2019-01-08T08:20:18.880Z,6.50
2019-01-08T08:21:18.966Z,6.47
2019-01-08T08:22:18.857Z,6.44
2019-01-08T08:23:18.844Z,6.42
2019-01-08T08:24:18.834Z,6.39
2019-01-08T08:25:18.824Z,6.34
2019-01-08T08:26:18.813Z,6.37
2019-01-08T08:27:18.804Z,6.35
2019-01-08T08:28:18.789Z,6.34
2019-01-08T08:29:18.780Z,6.32
2019-01-08T08:30:18.775Z,6.32
2019-01-08T08:31:18.758Z,6.31
2019-01-08T08:32:18.755Z,6.27
2019-01-08T08:33:18.737Z,6.26
2019-01-08T08:34:18.725Z,6.26
2019-01-08T08:35:18.719Z,6.32
2019-01-08T08:36:18.705Z,6.32
2019-01-08T08:37:18.699Z,6.32
2019-01-08T08:38:18.683Z,6.31
2019-01-08T08:39:18.672Z,6.32
2019-01-08T08:40:18.660Z,6.31
2019-01-08T08:41:18.652Z,6.29
2019-01-08T08:42:18.639Z,6.27
2019-01-08T08:43:18.632Z,6.24
2019-01-08T08:44:18.617Z,6.24
2019-01-08T08:45:18.604Z,6.26
2019-01-08T08:46:18.622Z,6.27
2019-01-08T08:47:18.583Z,6.27
2019-01-08T08:48:18.574Z,6.26
2019-01-08T08:49:18.561Z,6.24
2019-01-08T08:50:18.554Z,6.23
2019-01-08T08:51:18.538Z,6.21
2019-01-08T08:52:18.534Z,6.23
2019-01-08T08:53:18.519Z,6.24
2019-01-08T08:54:18.505Z,6.26
2019-01-08T08:55:18.497Z,6.26
2019-01-08T08:56:18.486Z,6.27
2019-01-08T08:57:18.476Z,6.27
2019-01-08T08:58:18.465Z,6.26
2019-01-08T08:59:18.452Z,6.27
2019-01-08T09:00:18.441Z,6.26
2019-01-08T09:01:18.431Z,6.26
2019-01-08T09:02:18.418Z,6.27
2019-01-08T09:03:18.412Z,6.31
2019-01-08T09:04:18.396Z,6.32
2019-01-08T09:05:18.386Z,6.37
2019-01-08T09:06:18.377Z,6.38
2019-01-08T09:07:20.169Z,6.38
2019-01-08T09:08:18.353Z,6.39
2019-01-08T09:09:18.345Z,6.41
2019-01-08T09:10:18.333Z,6.42
2019-01-08T09:11:18.322Z,6.44
2019-01-08T09:12:18.315Z,6.44
2019-01-08T09:13:18.307Z,6.45
2019-01-08T09:14:18.287Z,6.45
2019-01-08T09:15:18.279Z,6.49
2019-01-08T09:16:18.266Z,6.54
2019-01-08T09:17:18.261Z,6.57
2019-01-08T09:18:18.246Z,6.56
2019-01-08T09:19:18.233Z,6.50
2019-01-08T09:20:18.224Z,6.47
2019-01-08T09:21:18.214Z,6.50
2019-01-08T09:22:18.201Z,6.50
2019-01-08T09:23:18.190Z,6.50
2019-01-08T09:24:18.179Z,6.50
2019-01-08T09:25:18.174Z,6.54
2019-01-08T09:26:18.157Z,6.56
2019-01-08T09:27:18.146Z,6.59
2019-01-08T09:28:18.138Z,6.62
2019-01-08T09:29:18.128Z,6.59
2019-01-08T09:30:18.123Z,6.59
2019-01-08T09:31:18.104Z,6.56
2019-01-08T09:32:18.094Z,6.53
2019-01-08T09:33:18.083Z,6.53
2019-01-08T09:34:18.071Z,6.54
2019-01-08T09:35:18.063Z,6.54
2019-01-08T09:36:18.049Z,6.52
2019-01-08T09:37:18.038Z,6.52
2019-01-08T09:38:18.027Z,6.52
2019-01-08T09:39:18.017Z,6.53
2019-01-08T09:40:18.004Z,6.54
2019-01-08T09:41:17.996Z,6.53
2019-01-08T09:42:17.984Z,6.50
2019-01-08T09:43:17.973Z,6.50
2019-01-08T09:44:17.964Z,6.50
2019-01-08T09:45:17.954Z,6.45
2019-01-08T09:46:17.943Z,6.44
2019-01-08T09:47:17.937Z,6.44
2019-01-08T09:48:17.922Z,6.44
2019-01-08T09:49:17.908Z,6.39
2019-01-08T09:50:17.896Z,6.38
2019-01-08T09:51:17.885Z,6.37
2019-01-08T09:52:17.883Z,6.39
2019-01-08T09:53:17.882Z,6.39
2019-01-08T09:54:17.857Z,6.41
2019-01-08T09:55:17.842Z,6.42
2019-01-08T09:56:17.834Z,6.35
2019-01-08T09:57:17.821Z,6.29
2019-01-08T09:58:17.809Z,6.32
2019-01-08T09:59:17.803Z,6.31
2019-01-08T10:00:17.791Z,6.32
2019-01-08T10:01:23.777Z,6.29
2019-01-08T10:02:38.955Z,6.29
2019-01-08T10:03:38.942Z,6.23
2019-01-08T10:04:38.929Z,6.19
2019-01-08T10:05:38.927Z,6.20
2019-01-08T10:06:38.912Z,6.19
2019-01-08T10:07:38.900Z,6.19
2019-01-08T10:08:38.890Z,6.20
2019-01-08T10:09:38.880Z,6.20
2019-01-08T10:10:38.867Z,6.19
2019-01-08T10:11:38.856Z,6.11
2019-01-08T10:12:38.845Z,6.03
2019-01-08T10:13:38.837Z,6.02
2019-01-08T10:14:38.822Z,5.99
2019-01-08T10:15:38.813Z,5.96
2019-01-08T10:16:38.802Z,6.01
2019-01-08T10:17:38.791Z,6.01
2019-01-08T10:18:38.781Z,6.05
2019-01-08T10:19:38.770Z,5.99
2019-01-08T10:20:38.759Z,6.02
2019-01-08T10:21:38.747Z,6.01
2019-01-08T10:22:38.738Z,5.99
2019-01-08T10:23:38.728Z,6.03
2019-01-08T10:24:38.715Z,6.03
2019-01-08T10:25:38.706Z,6.02
2019-01-08T10:26:38.701Z,6.01
2019-01-08T10:27:38.684Z,6.02
2019-01-08T10:28:38.673Z,6.05
2019-01-08T10:29:38.662Z,6.01
2019-01-08T10:30:38.651Z,5.98
2019-01-08T10:31:38.642Z,5.95
2019-01-08T10:32:38.628Z,5.98
2019-01-08T10:33:38.617Z,5.96
2019-01-08T10:34:38.607Z,5.98
2019-01-08T10:35:38.598Z,6.01
2019-01-08T10:36:38.587Z,6.03
2019-01-08T10:37:38.574Z,6.05
2019-01-08T10:38:38.563Z,6.06
2019-01-08T10:39:38.553Z,6.06
2019-01-08T10:40:38.542Z,6.08
2019-01-08T10:41:38.531Z,6.10
2019-01-08T10:42:38.521Z,6.13
2019-01-08T10:43:38.510Z,6.16
2019-01-08T10:44:38.502Z,6.10
2019-01-08T10:45:38.490Z,6.16
2019-01-08T10:46:38.482Z,6.20
2019-01-08T10:47:38.468Z,6.21
2019-01-08T10:48:38.462Z,6.20
2019-01-08T10:49:38.453Z,6.19
2019-01-08T10:50:38.435Z,6.20
2019-01-08T10:51:38.425Z,6.20
2019-01-08T10:52:38.415Z,6.20
2019-01-08T10:53:38.408Z,6.21
2019-01-08T10:54:38.391Z,6.23
2019-01-08T10:55:38.380Z,6.24
2019-01-08T10:56:38.376Z,6.29
2019-01-08T10:57:38.359Z,6.29
2019-01-08T10:58:38.988Z,6.31
2019-01-08T10:59:38.342Z,6.34
2019-01-08T11:00:38.324Z,6.35
2019-01-08T11:01:40.581Z,6.34
2019-01-08T11:02:38.306Z,6.35
2019-01-08T11:03:38.293Z,6.34
2019-01-08T11:04:38.282Z,6.37
2019-01-08T11:05:38.279Z,6.38
2019-01-08T11:06:38.263Z,6.39
2019-01-08T11:07:38.251Z,6.41
2019-01-08T11:08:38.240Z,6.42
2019-01-08T11:09:38.230Z,6.44
2019-01-08T11:10:38.218Z,6.44
2019-01-08T11:11:38.211Z,6.42
2019-01-08T11:12:38.197Z,6.39
2019-01-08T11:13:38.187Z,6.41
2019-01-08T11:14:38.178Z,6.39
2019-01-08T11:15:38.163Z,6.39
2019-01-08T11:16:38.155Z,6.41
2019-01-08T11:17:38.143Z,6.44
2019-01-08T11:18:38.136Z,6.49
2019-01-08T11:19:38.122Z,6.53
2019-01-08T11:20:38.112Z,6.52
2019-01-08T11:21:38.100Z,6.52
2019-01-08T11:22:38.087Z,6.53
2019-01-08T11:23:38.078Z,6.53
2019-01-08T11:24:38.066Z,6.54
2019-01-08T11:25:38.056Z,6.57
2019-01-08T11:26:38.047Z,6.59
2019-01-08T11:27:38.034Z,6.60
2019-01-08T11:28:38.025Z,6.62
2019-01-08T11:29:38.013Z,6.64
2019-01-08T11:30:38.001Z,6.62
2019-01-08T11:31:37.989Z,6.64
2019-01-08T11:32:37.981Z,6.63
2019-01-08T11:33:37.974Z,6.64
2019-01-08T11:34:39.853Z,6.70
2019-01-08T11:35:42.201Z,6.72
2019-01-08T11:36:37.935Z,6.72
2019-01-08T11:37:37.927Z,6.75
2019-01-08T11:38:37.920Z,6.77
2019-01-08T11:39:37.902Z,6.75
2019-01-08T11:40:37.892Z,6.75
2019-01-08T11:41:37.884Z,6.74
2019-01-08T11:42:37.878Z,6.74
2019-01-08T11:43:37.860Z,6.74
2019-01-08T11:44:37.846Z,6.74
2019-01-08T11:45:37.838Z,6.68
2019-01-08T11:46:37.824Z,6.64
2019-01-08T11:47:37.814Z,6.68
2019-01-08T11:48:37.806Z,6.67
2019-01-08T11:49:37.796Z,6.67
2019-01-08T11:50:37.781Z,6.68
2019-01-08T11:51:37.771Z,6.70
2019-01-08T11:52:37.761Z,6.68
2019-01-08T11:53:37.752Z,6.63
2019-01-08T11:54:41.175Z,6.63
2019-01-08T11:55:37.731Z,6.62
2019-01-08T11:56:37.723Z,6.64
2019-01-08T11:57:37.706Z,6.62
2019-01-08T11:58:37.696Z,6.63
2019-01-08T11:59:37.685Z,6.62
2019-01-08T12:00:37.675Z,6.60
2019-01-08T12:01:37.665Z,6.60
2019-01-08T12:02:37.651Z,6.59
2019-01-08T12:03:37.643Z,6.59
2019-01-08T12:04:37.629Z,6.57
2019-01-08T12:05:37.619Z,6.49
2019-01-08T12:06:37.609Z,6.42
2019-01-08T12:07:37.596Z,6.44
2019-01-08T12:08:37.591Z,6.49
2019-01-08T12:09:37.577Z,6.52
2019-01-08T12:10:37.563Z,6.52
2019-01-08T12:11:37.552Z,6.53
2019-01-08T12:12:37.544Z,6.49
2019-01-08T12:13:37.531Z,6.44
2019-01-08T12:14:37.520Z,6.39
2019-01-08T12:15:37.509Z,6.42
2019-01-08T12:16:37.503Z,6.44
2019-01-08T12:17:37.489Z,6.45
2019-01-08T12:18:37.478Z,6.47
2019-01-08T12:19:37.478Z,6.45
2019-01-08T12:20:37.459Z,6.47
2019-01-08T12:21:37.443Z,6.49
2019-01-08T12:22:41.000Z,6.44
2019-01-08T12:23:37.423Z,6.41
2019-01-08T12:24:37.411Z,6.42
2019-01-08T12:25:37.398Z,6.38
2019-01-08T12:26:37.390Z,6.39
2019-01-08T12:27:37.377Z,6.44
2019-01-08T12:28:37.367Z,6.44
2019-01-08T12:29:37.358Z,6.50
2019-01-08T12:30:37.356Z,6.54
2019-01-08T12:31:37.334Z,6.60
2019-01-08T12:32:37.323Z,6.63
2019-01-08T12:33:37.314Z,6.60
2019-01-08T12:34:37.302Z,6.57
2019-01-08T12:35:37.292Z,6.52
2019-01-08T12:36:37.281Z,6.45
2019-01-08T12:37:37.268Z,6.41
2019-01-08T12:38:37.284Z,6.41
2019-01-08T12:39:37.248Z,6.41
2019-01-08T12:40:37.237Z,6.39
2019-01-08T12:41:37.224Z,6.42
2019-01-08T12:42:37.214Z,6.39
2019-01-08T12:43:37.205Z,6.38
2019-01-08T12:44:37.202Z,6.34
2019-01-08T12:45:37.183Z,6.31
2019-01-08T12:46:37.169Z,6.34
2019-01-08T12:47:37.160Z,6.35
2019-01-08T12:48:37.149Z,6.34
2019-01-08T12:49:37.136Z,6.29
2019-01-08T12:50:37.129Z,6.32
2019-01-08T12:51:37.115Z,6.35
2019-01-08T12:52:37.108Z,6.34
2019-01-08T12:53:37.096Z,6.34
2019-01-08T12:54:37.085Z,6.27
2019-01-08T12:55:37.074Z,6.21
2019-01-08T12:56:37.062Z,6.14
2019-01-08T12:57:37.053Z,6.16
2019-01-08T12:58:37.040Z,6.13
2019-01-08T12:59:37.030Z,6.16
2019-01-08T13:00:37.017Z,6.13
2019-01-08T13:01:37.008Z,6.11
2019-01-08T13:02:36.996Z,6.13
2019-01-08T13:03:36.986Z,6.11
2019-01-08T13:04:36.975Z,6.06
2019-01-08T13:05:36.963Z,6.06
2019-01-08T13:06:36.953Z,6.03
2019-01-08T13:07:36.952Z,6.01
2019-01-08T13:08:36.931Z,5.99
2019-01-08T13:09:36.919Z,5.99
2019-01-08T13:10:36.909Z,5.96
2019-01-08T13:11:36.896Z,5.95
2019-01-08T13:12:36.889Z,5.95
2019-01-08T13:13:36.875Z,5.98
2019-01-08T13:14:36.867Z,5.96
2019-01-08T13:15:36.861Z,5.95
2019-01-08T13:16:36.847Z,5.95
2019-01-08T13:17:36.834Z,5.99
2019-01-08T13:18:36.820Z,5.95